Time;durP1;ratioP1;P1;durP2;ratioP2;P2;SDS_P1;SDS_P2;PMS_P1;PMS_P2;Temp;Humidity;BMP_temperature;BMP_pressure;BME280_temperature;BME280_humidity;BME280_pressure;Samples;Min_cycle;Max_cycle;Signal;HPM_P1;HPM_P2
2022/06/12 00:02:24;;;;;;;7.50;3.10;;;;;;;17.91;57.71;100475.69;10513503;28;20078;-62
2022/06/12 00:07:26;;;;;;;5.93;3.05;;;;;;;17.75;58.12;100479.56;10513214;28;20081;-61
2022/06/12 00:12:28;;;;;;;5.05;2.95;;;;;;;17.68;58.35;100472.25;10513001;28;20052;-62
2022/06/12 00:17:30;;;;;;;5.75;2.75;;;;;;;17.66;58.22;100471.53;10513037;28;20054;-62
2022/06/12 00:22:31;;;;;;;5.97;2.83;;;;;;;17.62;58.48;100468.31;10513027;28;20051;-61
2022/06/12 00:27:33;;;;;;;5.82;3.10;;;;;;;17.46;58.89;100464.34;10511534;28;20056;-61
2022/06/12 00:32:35;;;;;;;6.00;3.08;;;;;;;17.31;58.58;100462.88;10512474;28;20555;-62
2022/06/12 00:37:37;;;;;;;4.97;3.08;;;;;;;17.16;59.45;100474.69;10512047;28;20055;-62
2022/06/12 00:42:48;;;;;;;8.02;3.38;;;;;;;17.04;59.90;100468.53;10512811;28;20092;-61
2022/06/12 00:47:50;;;;;;;7.97;3.10;;;;;;;16.99;59.47;100471.56;10511487;28;20508;-61
2022/06/12 00:52:55;;;;;;;4.90;2.72;;;;;;;17.04;59.68;100477.31;10511974;28;20381;-62
2022/06/12 00:58:09;;;;;;;7.05;3.03;;;;;;;16.97;59.63;100480.56;10510641;28;20151;-61
2022/06/12 01:03:11;;;;;;;7.30;3.10;;;;;;;16.85;59.72;100478.88;10510340;28;20058;-61
2022/06/12 01:08:15;;;;;;;7.63;3.03;;;;;;;16.83;60.00;100478.13;10510489;28;20051;-61
2022/06/12 01:13:21;;;;;;;5.13;3.03;;;;;;;16.79;60.06;100477.50;10509401;28;20070;-61
2022/06/12 01:18:28;;;;;;;8.30;3.33;;;;;;;16.74;60.13;100478.84;10509811;28;20044;-62
2022/06/12 01:24:13;;;;;;;5.95;3.20;;;;;;;16.59;60.21;100475.56;10510204;28;20058;-62
2022/06/12 01:29:37;;;;;;;5.57;3.10;;;;;;;16.56;60.33;100478.44;10489819;28;20044;-61
2022/06/12 01:34:42;;;;;;;5.78;3.10;;;;;;;16.50;60.33;100470.13;10508464;28;20040;-62
2022/06/12 01:40:04;;;;;;;6.72;3.13;;;;;;;16.35;60.75;100472.09;10507854;28;20052;-61
2022/06/12 01:45:24;;;;;;;4.82;2.78;;;;;;;16.24;61.25;100475.53;10509266;28;20095;-62
2022/06/12 01:50:40;;;;;;;6.13;3.10;;;;;;;16.28;60.96;100480.59;10509900;28;20241;-62
2022/06/12 01:56:06;;;;;;;8.73;3.47;;;;;;;16.18;61.25;100485.72;10510079;28;20055;-61
2022/06/12 02:01:16;;;;;;;6.57;2.92;;;;;;;16.14;61.15;100479.81;10508847;28;20423;-61
2022/06/12 02:06:28;;;;;;;6.45;3.30;;;;;;;16.15;61.04;100481.50;10515928;28;20128;-61
2022/06/12 02:17:02;;;;;;;7.43;3.30;;;;;;;16.05;61.23;100485.78;10515316;28;20043;-61
2022/06/12 02:22:19;;;;;;;6.70;3.25;;;;;;;15.88;61.63;100482.69;10516060;28;20137;-61
2022/06/12 02:27:29;;;;;;;5.25;3.20;;;;;;;15.92;61.30;100481.50;10515396;28;20316;-61
2022/06/12 02:32:42;;;;;;;7.28;3.40;;;;;;;15.71;62.25;100486.56;10516180;28;20134;-61
2022/06/12 02:37:48;;;;;;;6.97;3.50;;;;;;;15.61;62.20;100476.78;10514979;28;20475;-61
2022/06/12 02:42:54;;;;;;;9.07;3.70;;;;;;;15.60;62.65;100473.28;10515853;28;20302;-61
2022/06/12 02:47:55;;;;;;;6.50;3.42;;;;;;;15.65;62.59;100473.81;10513991;28;20137;-61
2022/06/12 02:53:17;;;;;;;6.63;3.55;;;;;;;15.51;62.54;100479.22;10514150;28;20079;-62
2022/06/12 02:58:45;;;;;;;8.55;3.80;;;;;;;15.59;62.48;100482.16;10513853;28;20058;-61
2022/06/12 03:04:07;;;;;;;7.15;3.78;;;;;;;15.50;62.98;100493.38;10501269;28;20062;-62
2022/06/12 03:09:09;;;;;;;9.02;3.70;;;;;;;15.55;62.35;100482.50;10508250;28;20044;-61
2022/06/12 03:14:14;;;;;;;8.55;3.90;;;;;;;15.39;62.17;100485.31;10508208;28;20040;-61
2022/06/12 03:19:29;;;;;;;6.45;3.45;;;;;;;15.37;62.99;100489.88;10507611;28;20058;-61
2022/06/12 03:24:58;;;;;;;6.70;3.40;;;;;;;15.52;62.47;100499.38;10506839;28;20147;-61
2022/06/12 03:30:04;;;;;;;5.55;3.08;;;;;;;15.67;61.86;100505.34;10506954;28;20823;-61
2022/06/12 03:35:14;;;;;;;6.38;3.47;;;;;;;15.58;61.75;100512.13;10507002;28;20080;-62
2022/06/12 03:40:26;;;;;;;8.68;3.30;;;;;;;15.63;61.93;100509.16;10507599;28;20146;-61
2022/06/12 03:45:57;;;;;;;8.85;3.55;;;;;;;15.74;61.45;100520.59;10504847;28;20135;-61
2022/06/12 03:51:22;;;;;;;;;;;;;;;15.60;61.78;100523.38;10516012;28;20144;-61
2022/06/12 04:01:53;;;;;;;7.05;3.55;;;;;;;15.88;60.27;100515.19;10514591;28;20499;-62
2022/06/12 04:06:57;;;;;;;7.13;2.83;;;;;;;16.02;60.64;100516.81;10513607;28;20047;-62
2022/06/12 04:12:03;;;;;;;7.72;3.17;;;;;;;18.03;56.95;100511.72;10511490;28;20416;-62
2022/06/12 04:17:05;;;;;;;9.23;3.38;;;;;;;20.36;51.18;100505.56;10514233;28;20048;-62
2022/06/12 04:22:14;;;;;;;7.35;2.85;;;;;;;22.22;46.33;100492.00;10514226;28;20056;-62
2022/06/12 04:27:24;;;;;;;6.43;2.80;;;;;;;22.83;44.35;100485.84;10513833;28;20130;-63
2022/06/12 04:32:27;;;;;;;;;;;;;;;24.33;42.47;100481.47;10514266;28;20648;-62
2022/06/12 04:37:31;;;;;;;6.38;2.63;;;;;;;25.98;38.73;100474.34;10513004;28;19928;-62
2022/06/12 04:42:34;;;;;;;6.20;2.92;;;;;;;26.51;37.37;100466.22;10513224;28;20142;-62
2022/06/12 04:47:36;;;;;;;8.57;2.67;;;;;;;27.26;36.17;100473.19;10512373;28;20135;-62
2022/06/12 04:52:38;;;;;;;6.30;2.80;;;;;;;27.69;35.04;100476.03;10513580;28;20490;-61
2022/06/12 04:57:40;;;;;;;5.63;2.70;;;;;;;28.58;33.70;100475.53;10512247;28;20138;-62
2022/06/12 05:02:42;;;;;;;7.88;3.00;;;;;;;28.76;32.76;100475.88;10512210;28;20143;-62
2022/06/12 05:07:43;;;;;;;5.97;2.50;;;;;;;28.77;32.94;100478.38;10511275;28;20081;-62
2022/06/12 05:12:45;;;;;;;5.45;2.45;;;;;;;29.38;31.54;100473.22;10512005;28;20075;-62
2022/06/12 05:17:48;;;;;;;5.18;2.40;;;;;;;29.71;31.22;100474.19;10511105;28;20058;-62
2022/06/12 05:22:50;;;;;;;5.10;2.25;;;;;;;30.54;29.98;100471.06;10510670;28;20079;-62
2022/06/12 05:27:52;;;;;;;8.57;2.50;;;;;;;30.26;29.79;100478.50;10510447;28;20123;-62
2022/06/12 05:32:57;;;;;;;7.35;2.28;;;;;;;27.79;33.40;100481.97;10511388;28;20167;-62
2022/06/12 05:38:00;;;;;;;8.43;2.47;;;;;;;26.10;36.31;100483.66;10508664;28;20446;-62
2022/06/12 05:43:03;;;;;;;8.75;2.75;;;;;;;24.86;38.26;100484.44;10510722;28;20066;-62
2022/06/12 05:48:09;;;;;;;7.63;2.65;;;;;;;23.75;40.43;100484.16;10501304;28;20044;-62
2022/06/12 05:53:12;;;;;;;6.90;2.83;;;;;;;23.33;41.41;100492.97;10506304;28;20048;-62
2022/06/12 05:58:15;;;;;;;9.63;2.90;;;;;;;23.02;42.49;100488.31;10500728;28;20047;-62
2022/06/12 06:03:17;;;;;;;8.02;2.67;;;;;;;22.60;43.25;100488.97;10503319;28;20143;-62
2022/06/12 06:08:20;;;;;;;7.90;2.70;;;;;;;22.56;43.56;100482.28;10506560;28;20474;-61
2022/06/12 06:13:22;;;;;;;6.95;2.53;;;;;;;22.39;43.90;100483.13;10504916;28;20151;-61
2022/06/12 06:18:23;;;;;;;7.47;2.63;;;;;;;22.51;44.17;100481.94;10504810;28;20076;-62
2022/06/12 06:23:25;;;;;;;10.93;3.10;;;;;;;22.78;43.82;100482.81;10501959;28;20054;-61
2022/06/12 06:28:27;;;;;;;7.53;2.60;;;;;;;22.57;44.05;100486.66;10502432;28;20052;-62
2022/06/12 06:33:29;;;;;;;6.82;2.58;;;;;;;22.61;43.77;100489.84;10492916;28;20101;-62
2022/06/12 06:38:31;;;;;;;7.60;2.40;;;;;;;22.96;43.43;100486.28;10505551;28;20559;-62
2022/06/12 06:48:54;;;;;;;8.57;2.80;;;;;;;23.60;41.99;100478.59;10501979;28;20060;-62
2022/06/12 06:53:55;;;;;;;8.85;2.85;;;;;;;24.79;40.27;100465.59;10503963;28;20988;-62
2022/06/12 06:58:57;;;;;;;6.95;2.60;;;;;;;26.78;37.29;100456.75;10502021;28;20144;-62
2022/06/12 07:03:59;;;;;;;11.73;3.20;;;;;;;28.71;33.91;100463.00;10504274;28;20051;-62
2022/06/12 07:09:01;;;;;;;11.20;2.95;;;;;;;29.68;32.30;100459.22;10506049;28;20071;-62
2022/06/12 07:14:03;;;;;;;8.93;2.40;;;;;;;30.92;30.28;100446.94;10499050;28;20154;-63
2022/06/12 07:19:05;;;;;;;12.18;2.78;;;;;;;30.76;29.76;100456.31;10499031;28;20075;-63
2022/06/12 07:24:07;;;;;;;7.47;2.60;;;;;;;30.34;30.05;100448.59;10499792;28;20514;-63
2022/06/12 07:29:10;;;;;;;8.10;2.80;;;;;;;30.82;29.31;100449.25;10500408;28;20526;-63
2022/06/12 07:34:12;;;;;;;9.80;2.97;;;;;;;31.55;26.99;100443.47;10502784;28;20135;-63
2022/06/12 07:39:21;;;;;;;9.25;2.92;;;;;;;31.78;25.73;100441.03;10500262;28;20662;-63
2022/06/12 07:44:25;;;;;;;7.97;2.67;;;;;;;32.66;25.21;100439.16;10506584;28;20155;-63
2022/06/12 07:49:29;;;;;;;7.53;2.53;;;;;;;32.79;23.88;100447.19;10503563;28;20090;-63
2022/06/12 07:54:30;;;;;;;9.85;2.67;;;;;;;32.70;24.35;100441.22;10501604;28;20044;-62
2022/06/12 07:59:33;;;;;;;7.43;2.47;;;;;;;32.53;24.12;100442.84;10499674;28;20405;-62
2022/06/12 08:04:35;;;;;;;6.28;2.30;;;;;;;32.32;24.98;100455.91;10497732;28;20074;-62
2022/06/12 08:09:37;;;;;;;8.88;2.70;;;;;;;32.53;24.60;100445.56;10504638;28;20090;-62
2022/06/12 08:14:39;;;;;;;8.77;3.10;;;;;;;32.40;24.60;100439.38;10505230;28;20052;-62
2022/06/12 08:25:06;;;;;;;10.50;2.75;;;;;;;31.83;25.27;100446.63;10504760;28;20416;-62
2022/06/12 08:30:08;;;;;;;7.57;2.50;;;;;;;32.30;24.88;100447.16;10505322;28;20139;-62
2022/06/12 08:35:16;;;;;;;7.78;2.53;;;;;;;32.39;24.73;100445.84;10505108;28;20051;-68
2022/06/12 08:40:32;;;;;;;8.43;2.60;;;;;;;31.21;25.59;100438.38;10505497;28;20055;-67
2022/06/12 08:45:42;;;;;;;10.88;2.90;;;;;;;30.99;25.84;100432.41;10508613;28;20048;-66
2022/06/12 08:50:56;;;;;;;9.32;2.90;;;;;;;30.48;25.90;100429.53;10503565;28;20326;-67
2022/06/12 08:56:05;;;;;;;9.20;2.50;;;;;;;30.45;26.22;100429.09;10493337;28;20048;-68
2022/06/12 09:01:08;;;;;;;7.90;2.00;;;;;;;30.66;24.95;100426.22;10506300;28;20313;-66
2022/06/12 09:06:43;;;;;;;4.85;2.10;;;;;;;30.53;24.18;100418.97;10508012;28;20140;-67
2022/06/12 09:11:47;;;;;;;6.97;1.83;;;;;;;30.80;23.97;100413.50;10506018;28;20067;-66
2022/06/12 09:16:49;;;;;;;7.00;1.90;;;;;;;31.40;22.97;100405.00;10504787;28;20047;-66
2022/06/12 09:22:13;;;;;;;5.47;1.70;;;;;;;31.63;22.09;100396.41;10503986;28;20266;-66
2022/06/12 09:27:26;;;;;;;6.72;1.65;;;;;;;31.14;22.76;100392.44;10501727;28;20066;-67
2022/06/12 09:32:58;;;;;;;6.13;1.90;;;;;;;31.24;22.83;100397.41;10500617;28;20438;-66
2022/06/12 09:38:21;;;;;;;4.25;1.70;;;;;;;31.01;22.73;100392.50;10505046;28;20403;-67
2022/06/12 09:43:51;;;;;;;6.47;1.83;;;;;;;30.54;23.86;100388.22;10506676;28;20055;-66
2022/06/12 09:49:35;;;;;;;5.43;1.77;;;;;;;30.45;23.99;100391.31;10503505;28;20113;-67
2022/06/12 09:54:42;;;;;;;8.27;2.00;;;;;;;30.42;23.14;100376.34;10501532;28;20147;-67
2022/06/12 09:59:56;;;;;;;5.22;1.85;;;;;;;30.10;23.82;100381.75;10508949;28;20134;-67
2022/06/12 10:05:09;;;;;;;7.55;2.00;;;;;;;30.02;23.48;100384.66;10503475;28;20048;-68
2022/06/12 10:10:19;;;;;;;5.35;1.83;;;;;;;29.96;23.25;100374.69;10497672;28;20059;-67
2022/06/12 10:15:29;;;;;;;4.72;1.73;;;;;;;29.84;23.60;100371.75;10495179;28;20054;-67
2022/06/12 10:20:48;;;;;;;6.75;2.10;;;;;;;29.80;23.41;100373.22;10505228;28;20341;-67
2022/06/12 10:25:53;;;;;;;4.35;1.70;;;;;;;29.55;24.45;100372.13;10504144;28;20073;-67
2022/06/12 10:31:10;;;;;;;7.90;2.20;;;;;;;29.14;24.39;100363.22;10502638;28;20048;-67
2022/06/12 10:36:24;;;;;;;6.63;2.15;;;;;;;29.36;24.30;100359.41;10505484;28;20482;-67
2022/06/12 10:41:29;;;;;;;8.52;2.20;;;;;;;29.04;24.86;100359.06;10506728;28;20135;-67
2022/06/12 10:46:32;;;;;;;7.38;2.28;;;;;;;28.70;25.60;100372.53;10506371;28;20148;-66
2022/06/12 10:51:40;;;;;;;5.55;2.03;;;;;;;28.13;24.98;100363.81;10503692;28;20059;-66
2022/06/12 10:56:54;;;;;;;6.50;2.07;;;;;;;27.72;25.36;100360.06;10509564;28;20043;-66
2022/06/12 11:02:01;;;;;;;6.53;2.13;;;;;;;27.46;26.58;100361.44;10517339;28;20619;-66
2022/06/12 11:07:28;;;;;;;6.78;2.08;;;;;;;27.52;26.26;100338.38;10516491;28;20050;-66
2022/06/12 11:12:36;;;;;;;4.55;1.70;;;;;;;27.63;25.12;100337.88;10519281;28;20464;-66
2022/06/12 11:17:55;;;;;;;4.65;1.77;;;;;;;27.47;26.19;100330.91;10518284;28;20127;-66
2022/06/12 11:23:03;;;;;;;5.93;1.92;;;;;;;27.36;26.02;100334.06;10516848;28;20127;-66
2022/06/12 11:29:00;;;;;;;5.32;1.90;;;;;;;27.03;26.98;100319.41;10507215;28;20052;-67
2022/06/12 11:34:26;;;;;;;7.10;2.30;;;;;;;27.43;26.21;100323.41;10504960;28;20530;-66
2022/06/12 11:40:02;;;;;;;7.00;2.05;;;;;;;27.52;26.99;100327.66;10503433;28;20147;-66
2022/06/12 11:45:04;;;;;;;7.95;2.13;;;;;;;27.77;25.91;100314.69;10505479;28;20105;-66
2022/06/12 11:50:29;;;;;;;5.30;1.77;;;;;;;27.90;26.38;100304.03;10504813;28;20058;-66
2022/06/12 11:55:54;;;;;;;5.10;1.85;;;;;;;27.89;25.72;100297.00;10497625;28;20135;-66
2022/06/12 12:01:02;;;;;;;8.07;1.90;;;;;;;27.48;26.78;100292.25;10505069;28;20306;-66
2022/06/12 12:06:26;;;;;;;7.03;1.90;;;;;;;27.91;27.18;100285.00;10503425;28;20525;-66
2022/06/12 12:11:38;;;;;;;5.82;1.90;;;;;;;27.81;26.33;100281.03;10493623;28;20356;-67
2022/06/12 12:16:42;;;;;;;5.63;1.90;;;;;;;27.90;25.99;100269.91;10488493;28;20137;-67
2022/06/12 12:21:53;;;;;;;5.68;1.67;;;;;;;27.70;26.14;100266.22;10490569;28;20052;-66
2022/06/12 12:26:58;;;;;;;5.63;1.80;;;;;;;27.66;26.78;100272.16;10498643;28;20534;-65
2022/06/12 12:32:05;;;;;;;6.15;1.90;;;;;;;28.11;26.75;100269.03;10496170;28;20135;-66
2022/06/12 12:42:38;;;;;;;4.85;1.80;;;;;;;27.95;26.22;100256.69;10506267;28;20087;-66
2022/06/12 12:47:40;;;;;;;6.27;2.07;;;;;;;27.70;26.21;100251.94;10508338;28;20048;-66
2022/06/12 12:52:48;;;;;;;6.07;1.70;;;;;;;27.60;26.37;100252.28;10509271;28;20138;-66
2022/06/12 12:57:50;;;;;;;6.05;1.80;;;;;;;28.00;26.53;100251.59;10508190;28;20233;-67
2022/06/12 13:02:56;;;;;;;6.78;1.77;;;;;;;28.20;25.84;100236.41;10507586;28;20060;-67
2022/06/12 13:08:37;;;;;;;5.13;1.70;;;;;;;27.61;26.10;100234.28;10507131;28;20051;-66
2022/06/12 13:13:51;;;;;;;5.82;1.98;;;;;;;27.48;25.89;100233.13;10493478;28;20052;-66
2022/06/12 13:19:14;;;;;;;3.92;1.70;;;;;;;27.20;25.99;100226.88;10507373;28;20143;-67
2022/06/12 13:24:30;;;;;;;4.78;1.80;;;;;;;27.07;25.97;100220.53;10509184;28;20048;-67
2022/06/12 13:29:32;;;;;;;5.53;1.45;;;;;;;27.20;25.83;100216.16;10508133;28;20044;-66
2022/06/12 13:34:34;;;;;;;4.85;1.52;;;;;;;27.31;24.94;100196.00;10507717;28;20135;-66
2022/06/12 13:39:40;;;;;;;4.10;1.58;;;;;;;27.45;24.80;100193.25;10502254;28;20040;-68
2022/06/12 13:44:46;;;;;;;7.18;1.80;;;;;;;27.81;24.70;100182.38;10506997;28;20174;-66
2022/06/12 13:49:56;;;;;;;3.95;1.73;;;;;;;28.16;22.72;100172.44;10507335;28;20567;-67
2022/06/12 13:54:57;;;;;;;3.88;1.40;;;;;;;28.20;23.45;100171.03;10508059;28;20662;-66
2022/06/12 14:00:00;;;;;;;4.05;1.80;;;;;;;28.23;24.11;100176.00;10506977;28;20052;-67
2022/06/12 14:05:24;;;;;;;5.20;1.50;;;;;;;28.07;23.19;100169.13;10508129;28;20670;-66
2022/06/12 14:10:36;;;;;;;4.50;1.50;;;;;;;28.16;22.98;100153.63;10504715;28;20146;-66
2022/06/12 14:15:41;;;;;;;4.30;1.55;;;;;;;28.19;23.36;100153.22;10506941;28;20139;-68
2022/06/12 14:20:43;;;;;;;6.57;1.52;;;;;;;28.18;24.62;100151.56;10506571;28;20052;-67
2022/06/12 14:25:51;;;;;;;5.82;1.80;;;;;;;27.89;25.66;100152.66;10507485;28;20089;-66
2022/06/12 14:31:23;;;;;;;4.57;1.70;;;;;;;27.60;24.58;100155.53;10505266;28;20125;-67
2022/06/12 14:36:30;;;;;;;4.35;1.77;;;;;;;27.89;25.94;100146.47;10505459;28;20048;-67
2022/06/12 14:41:32;;;;;;;4.65;2.10;;;;;;;28.15;25.34;100147.44;10506354;28;20119;-67
2022/06/12 14:46:34;;;;;;;4.60;1.92;;;;;;;28.45;25.98;100147.16;10504111;28;20052;-67
2022/06/12 14:51:36;;;;;;;5.30;1.80;;;;;;;28.22;27.26;100144.75;10504750;28;20048;-67
2022/06/12 14:56:42;;;;;;;4.00;1.70;;;;;;;28.04;28.01;100145.28;10505370;28;20051;-66
2022/06/12 15:01:44;;;;;;;5.93;1.88;;;;;;;27.89;28.01;100141.88;10507405;28;20095;-66
2022/06/12 15:06:46;;;;;;;6.63;2.55;;;;;;;27.94;27.96;100139.44;10503959;28;20484;-67
2022/06/12 15:11:48;;;;;;;5.35;2.05;;;;;;;27.72;27.82;100137.00;10505295;28;20118;-67
2022/06/12 15:16:50;;;;;;;6.68;1.80;;;;;;;27.47;28.36;100131.25;10504871;28;20174;-67
2022/06/12 15:21:52;;;;;;;4.88;1.73;;;;;;;27.60;27.83;100127.84;10505485;28;20130;-66
2022/06/12 15:32:27;;;;;;;4.72;1.70;;;;;;;27.31;27.87;100128.84;10502973;28;20543;-68
2022/06/12 15:37:29;;;;;;;5.70;1.98;;;;;;;27.23;27.47;100119.09;10501358;28;20562;-67
2022/06/12 15:42:31;;;;;;;5.85;1.60;;;;;;;26.92;27.99;100121.25;10506106;28;20119;-68
2022/06/12 15:47:33;;;;;;;4.85;1.50;;;;;;;27.10;27.52;100116.25;10510542;28;20139;-67
2022/06/12 15:52:35;;;;;;;7.72;1.67;;;;;;;26.88;27.79;100109.25;10477918;28;20062;-67
2022/06/12 15:57:37;;;;;;;5.03;1.42;;;;;;;26.78;27.42;100114.09;10487319;28;20560;-67
2022/06/12 16:02:39;;;;;;;5.97;1.60;;;;;;;26.73;27.16;100111.16;10494941;28;20048;-67
2022/06/12 16:07:41;;;;;;;4.78;1.58;;;;;;;26.67;27.63;100115.44;10491620;28;20051;-67
2022/06/12 16:12:51;;;;;;;5.57;1.50;;;;;;;26.90;27.34;100107.19;10483870;28;20203;-67
2022/06/12 16:17:59;;;;;;;5.43;1.58;;;;;;;27.20;26.91;100105.22;10492547;28;20507;-67
2022/06/12 16:23:01;;;;;;;4.15;1.52;;;;;;;26.97;26.39;100096.53;10487828;28;20059;-67
2022/06/12 16:28:03;;;;;;;6.30;1.73;;;;;;;26.80;26.44;100092.44;10490646;28;20286;-67
2022/06/12 16:33:05;;;;;;;3.92;1.50;;;;;;;26.84;26.68;100091.88;10488712;28;20067;-67
2022/06/12 16:38:08;;;;;;;4.47;1.42;;;;;;;26.88;26.41;100097.66;10496598;28;20056;-67
2022/06/12 16:43:09;;;;;;;5.15;1.42;;;;;;;26.80;26.73;100085.22;10500821;28;20052;-67
2022/06/12 16:48:12;;;;;;;4.93;1.80;;;;;;;26.84;26.42;100077.59;10498313;28;20051;-67
2022/06/12 16:53:14;;;;;;;4.50;1.50;;;;;;;26.47;26.09;100087.53;10485972;28;20165;-67
2022/06/12 16:58:16;;;;;;;6.75;1.65;;;;;;;26.54;25.90;100091.13;10498811;28;20583;-67
2022/06/12 17:03:18;;;;;;;5.15;1.50;;;;;;;26.57;26.35;100096.13;10499415;28;20075;-67
2022/06/12 17:08:20;;;;;;;5.65;1.60;;;;;;;26.59;25.69;100098.63;10499886;28;20044;-67
2022/06/12 17:13:22;;;;;;;6.47;1.60;;;;;;;26.26;26.14;100098.22;10497528;28;20053;-67
2022/06/12 17:23:44;;;;;;;5.75;1.70;;;;;;;26.17;25.83;100094.00;10491286;28;20716;-67
2022/06/12 17:28:46;;;;;;;4.82;1.55;;;;;;;26.04;26.34;100093.03;10487869;28;20135;-67
2022/06/12 17:33:47;;;;;;;7.63;1.85;;;;;;;26.14;26.29;100098.91;10496232;28;20407;-67
2022/06/12 17:38:49;;;;;;;7.50;2.10;;;;;;;26.05;25.89;100100.03;10490329;28;20055;-67
2022/06/12 17:43:51;;;;;;;6.13;1.65;;;;;;;25.83;26.34;100101.78;10492826;28;20040;-67
2022/06/12 17:48:53;;;;;;;5.03;1.73;;;;;;;25.69;26.58;100097.25;10492704;28;20438;-68
2022/06/12 17:53:55;;;;;;;7.47;1.70;;;;;;;25.61;26.91;100098.16;10496084;28;20055;-67
2022/06/12 17:58:58;;;;;;;10.68;1.85;;;;;;;25.43;27.00;100100.34;10506369;28;20106;-68
2022/06/12 18:03:59;;;;;;;4.72;1.88;;;;;;;25.27;27.70;100095.13;10500396;28;20134;-67
2022/06/12 18:09:03;;;;;;;4.53;1.70;;;;;;;25.25;27.74;100097.16;10505909;28;20494;-68
2022/06/12 18:14:06;;;;;;;5.35;1.73;;;;;;;25.19;27.83;100110.44;10503017;28;20150;-68
2022/06/12 18:19:12;;;;;;;4.65;1.60;;;;;;;25.05;27.94;100107.56;10504763;28;20797;-68
2022/06/12 18:24:23;;;;;;;5.80;1.70;;;;;;;24.90;28.20;100098.63;10502294;28;20273;-67
2022/06/12 18:29:25;;;;;;;8.50;2.10;;;;;;;24.43;28.44;100100.59;10505339;28;20584;-66
2022/06/12 18:34:27;;;;;;;6.85;1.92;;;;;;;24.22;29.02;100100.41;10503514;28;20048;-66
2022/06/12 18:39:29;;;;;;;4.85;1.83;;;;;;;24.04;29.43;100097.94;10505305;28;20383;-67
2022/06/12 18:44:31;;;;;;;7.65;2.03;;;;;;;23.98;30.42;100100.47;10503763;28;20085;-66
2022/06/12 18:49:32;;;;;;;7.70;1.90;;;;;;;23.89;30.30;100105.03;10504812;28;20141;-66
2022/06/12 18:54:34;;;;;;;6.32;2.08;;;;;;;23.72;30.17;100100.72;10504758;28;20190;-68
2022/06/12 18:59:36;;;;;;;8.43;1.85;;;;;;;23.54;30.24;100102.78;10501524;28;20116;-67
2022/06/12 19:04:39;;;;;;;7.43;1.90;;;;;;;23.28;30.84;100102.13;10502182;28;20465;-68
2022/06/12 19:09:40;;;;;;;8.90;2.35;;;;;;;23.10;31.13;100104.16;10505232;28;20097;-67
2022/06/12 19:14:42;;;;;;;6.45;1.88;;;;;;;22.93;32.19;100107.81;10503095;28;20058;-67
2022/06/12 19:19:44;;;;;;;8.07;2.38;;;;;;;22.75;32.52;100115.13;10509666;28;20170;-67
2022/06/12 19:24:49;;;;;;;8.90;1.90;;;;;;;22.52;33.13;100118.41;10512351;28;20076;-67
2022/06/12 19:29:51;;;;;;;7.43;2.35;;;;;;;22.35;33.56;100119.34;10512537;28;20154;-66
2022/06/12 19:34:53;;;;;;;6.22;2.20;;;;;;;22.23;33.75;100125.97;10511868;28;20058;-66
2022/06/12 19:39:56;;;;;;;7.70;2.65;;;;;;;21.99;34.37;100136.50;10513942;28;20079;-66
2022/06/12 19:44:58;;;;;;;6.60;2.20;;;;;;;21.78;35.60;100136.06;10511376;28;20147;-66
2022/06/12 19:50:00;;;;;;;5.43;1.88;;;;;;;21.50;36.48;100143.38;10506181;28;20360;-66
2022/06/12 19:55:02;;;;;;;8.02;2.08;;;;;;;21.28;36.85;100151.81;10507299;28;20043;-67
2022/06/12 20:00:14;;;;;;;6.77;1.80;;;;;;;21.08;37.41;100159.16;10507266;28;20499;-67
2022/06/12 20:10:41;;;;;;;4.35;2.00;;;;;;;20.68;38.54;100166.72;10482306;28;20160;-67
2022/06/12 20:15:43;;;;;;;6.90;2.30;;;;;;;20.49;38.94;100177.47;10492487;28;20075;-67
2022/06/12 20:21:01;;;;;;;7.70;2.58;;;;;;;20.32;39.60;100175.59;10497397;28;20575;-67
2022/06/12 20:26:03;;;;;;;7.53;2.35;;;;;;;20.18;39.60;100178.72;10496730;28;20058;-67
2022/06/12 20:31:05;;;;;;;6.95;2.10;;;;;;;20.06;39.68;100177.25;10479088;28;20056;-68
2022/06/12 20:36:07;;;;;;;8.90;2.30;;;;;;;19.82;40.14;100176.91;10492973;28;20056;-68
2022/06/12 20:41:09;;;;;;;5.70;2.08;;;;;;;19.63;40.43;100182.22;10498484;28;20052;-68
2022/06/12 20:46:12;;;;;;;6.30;2.20;;;;;;;19.36;41.49;100185.63;10498327;28;20060;-67
2022/06/12 20:51:14;;;;;;;6.80;2.17;;;;;;;19.04;42.03;100179.78;10490563;28;20098;-61
2022/06/12 20:56:16;;;;;;;8.27;2.30;;;;;;;18.84;42.71;100183.38;10488711;28;20138;-61
2022/06/12 21:01:18;;;;;;;5.60;1.98;;;;;;;18.67;43.02;100183.06;10494729;28;20052;-61
2022/06/12 21:06:20;;;;;;;8.45;2.28;;;;;;;18.59;43.72;100185.56;10486369;28;20086;-61
2022/06/12 21:11:25;;;;;;;6.22;2.10;;;;;;;18.46;44.09;100186.78;10492726;28;20059;-61
2022/06/12 21:16:27;;;;;;;6.97;2.22;;;;;;;18.26;44.32;100190.38;10492631;28;20177;-61
2022/06/12 21:21:29;;;;;;;8.30;2.30;;;;;;;18.22;44.24;100194.25;10506744;28;20052;-61
2022/06/12 21:26:32;;;;;;;8.90;2.33;;;;;;;18.28;44.11;100189.22;10502321;28;20051;-61
2022/06/12 21:31:33;;;;;;;9.98;2.22;;;;;;;18.31;44.45;100193.44;10503162;28;20144;-61
2022/06/12 21:36:35;;;;;;;8.75;2.78;;;;;;;18.29;44.61;100182.97;10499759;28;20484;-61
2022/06/12 21:41:37;;;;;;;8.70;2.58;;;;;;;18.29;44.38;100184.78;10498475;28;20610;-61
2022/06/12 21:46:38;;;;;;;7.00;2.35;;;;;;;18.27;44.70;100178.78;10509535;28;20684;-61
2022/06/12 21:57:05;;;;;;;8.55;2.50;;;;;;;18.26;44.70;100177.94;10507243;28;20092;-61
2022/06/12 22:02:08;;;;;;;8.57;2.60;;;;;;;18.15;44.93;100183.31;10510106;28;20048;-61
2022/06/12 22:07:15;;;;;;;10.65;2.63;;;;;;;17.99;45.09;100182.13;10508400;28;20062;-61
2022/06/12 22:12:17;;;;;;;7.90;2.20;;;;;;;17.79;45.30;100178.56;10507243;28;20056;-61
2022/06/12 22:17:19;;;;;;;6.45;2.50;;;;;;;17.71;45.78;100181.00;10509204;28;20123;-61
2022/06/12 22:22:23;;;;;;;5.70;2.33;;;;;;;17.74;46.14;100186.88;10507013;28;20044;-61
2022/06/12 22:27:25;;;;;;;6.55;2.40;;;;;;;17.73;46.11;100194.94;10508690;28;20087;-61
2022/06/12 22:32:27;;;;;;;7.45;2.30;;;;;;;17.72;45.88;100182.69;10507253;28;20039;-61
2022/06/12 22:37:29;;;;;;;8.63;2.50;;;;;;;17.72;46.25;100194.13;10508503;28;20048;-61
2022/06/12 22:42:30;;;;;;;10.02;2.63;;;;;;;17.89;45.78;100186.53;10506468;28;20135;-61
2022/06/12 22:47:32;;;;;;;6.78;2.28;;;;;;;17.90;45.67;100181.09;10505033;28;20048;-61
2022/06/12 22:52:34;;;;;;;6.65;2.17;;;;;;;18.02;45.60;100181.84;10521039;28;20432;-61
2022/06/12 22:57:36;;;;;;;7.22;2.33;;;;;;;18.01;45.87;100182.84;10507038;28;20040;-61
2022/06/12 23:02:38;;;;;;;6.05;2.40;;;;;;;17.97;46.00;100179.63;10506387;28;20446;-61
2022/06/12 23:07:41;;;;;;;10.30;2.75;;;;;;;17.92;45.83;100183.63;10507759;28;20643;-61
2022/06/12 23:12:43;;;;;;;8.05;2.33;;;;;;;17.92;45.74;100180.97;10505973;28;20048;-61
2022/06/12 23:17:44;;;;;;;6.85;2.38;;;;;;;17.91;45.94;100188.09;10505951;28;20131;-61
2022/06/12 23:28:07;;;;;;;9.73;2.53;;;;;;;18.05;44.20;100198.31;10506406;28;20084;-60
2022/06/12 23:33:11;;;;;;;7.25;2.40;;;;;;;18.07;44.17;100200.84;10499234;28;20134;-61
2022/06/12 23:38:13;;;;;;;8.77;2.67;;;;;;;18.07;44.33;100208.78;10505539;28;20048;-61
2022/06/12 23:43:16;;;;;;;11.30;2.90;;;;;;;18.04;43.93;100215.16;10503379;28;20137;-61
2022/06/12 23:48:20;;;;;;;9.90;2.50;;;;;;;17.88;44.21;100212.16;10503553;28;20066;-60
2022/06/12 23:53:22;;;;;;;8.93;2.78;;;;;;;17.74;44.18;100215.97;10504830;28;20055;-61
2022/06/12 23:58:24;;;;;;;8.10;2.80;;;;;;;17.61;44.54;100217.13;10504895;28;20048;-61
